Time;durP1;ratioP1;P1;durP2;ratioP2;P2;SDS_P1;SDS_P2;PMS_P1;PMS_P2;Temp;Humidity;BMP_temperature;BMP_pressure;BME280_temperature;BME280_humidity;BME280_pressure;Samples;Min_cycle;Max_cycle;Signal;HPM_P1;HPM_P2
2022/05/14 00:00:50;;;;;;;7.78;4.18;;;;;;;11.08;76.47;101984.88;4879934;29;20107;-65
2022/05/14 00:03:16;;;;;;;9.65;4.85;;;;;;;11.07;76.92;101985.81;4878962;29;20833;-65
2022/05/14 00:05:42;;;;;;;14.27;4.57;;;;;;;11.00;77.43;101980.84;4880586;29;20640;-67
2022/05/14 00:08:08;;;;;;;10.15;4.50;;;;;;;10.97;77.64;101989.00;4879550;29;20044;-66
2022/05/14 00:13:03;;;;;;;10.93;4.07;;;;;;;11.07;77.10;101985.81;4879336;29;20255;-66
2022/05/14 00:13:20;;;;;;;11.38;4.50;;;;;;;11.23;76.63;101974.41;4860399;29;20935;-66
2022/05/14 00:15:46;;;;;;;9.02;3.80;;;;;;;11.20;76.82;101978.09;4879255;29;20461;-66
2022/05/14 00:18:11;;;;;;;9.88;4.18;;;;;;;11.34;75.92;101978.28;4862009;29;20049;-66
2022/05/14 00:20:37;;;;;;;12.02;4.22;;;;;;;11.32;76.38;101977.50;4879057;29;20048;-66
2022/05/14 00:23:04;;;;;;;11.05;3.53;;;;;;;11.44;75.59;101981.38;4878171;29;20044;-67
2022/05/14 00:25:30;;;;;;;4.90;3.05;;;;;;;11.40;75.84;101979.81;4879234;29;20041;-66
2022/05/14 00:27:56;;;;;;;6.45;3.70;;;;;;;11.43;75.02;101974.31;4878433;29;20051;-66
2022/05/14 00:30:23;;;;;;;10.48;4.10;;;;;;;11.47;75.27;101970.56;4878749;29;20033;-67
2022/05/14 00:32:50;;;;;;;9.40;3.17;;;;;;;11.45;74.92;101976.94;4862307;29;20041;-66
2022/05/14 00:35:17;;;;;;;8.02;3.58;;;;;;;11.43;74.66;101978.78;4860838;29;20808;-67
2022/05/14 00:37:43;;;;;;;9.23;3.63;;;;;;;11.43;74.50;101981.47;4862256;29;20044;-66
2022/05/14 00:40:20;;;;;;;6.63;3.15;;;;;;;11.43;74.50;101976.13;4860944;29;20104;-67
2022/05/14 00:42:46;;;;;;;7.32;3.47;;;;;;;11.43;74.34;101979.66;4878160;29;20045;-66
2022/05/14 00:45:14;;;;;;;11.85;3.67;;;;;;;11.36;74.51;101980.91;4878606;29;20043;-65
2022/05/14 00:47:42;;;;;;;10.68;3.55;;;;;;;11.38;73.67;101981.69;4879926;29;20049;-66
2022/05/14 00:50:19;;;;;;;13.48;3.88;;;;;;;11.36;74.01;101981.75;4877612;29;20112;-66
2022/05/14 00:52:44;;;;;;;6.07;3.33;;;;;;;11.35;74.32;101972.03;4860187;29;20168;-67
2022/05/14 00:55:11;;;;;;;9.57;3.55;;;;;;;11.31;74.63;101973.09;4860286;29;20058;-66
2022/05/14 00:57:40;;;;;;;5.38;2.83;;;;;;;11.39;73.94;101978.06;4860750;29;20048;-66
2022/05/14 01:00:14;;;;;;;6.72;2.97;;;;;;;11.31;74.18;101973.09;4876993;29;20045;-66
2022/05/14 01:02:39;;;;;;;7.07;3.58;;;;;;;11.41;73.82;101970.84;4862094;29;20838;-67
2022/05/14 01:05:06;;;;;;;12.00;3.92;;;;;;;11.45;74.30;101977.78;4878036;29;20041;-66
2022/05/14 01:07:32;;;;;;;11.52;3.45;;;;;;;11.44;74.00;101967.16;4861347;29;20053;-67
2022/05/14 01:10:00;;;;;;;5.45;2.88;;;;;;;11.36;74.65;101971.09;4877533;29;20052;-66
2022/05/14 01:12:29;;;;;;;9.00;3.47;;;;;;;11.32;74.33;101968.63;4876550;29;20072;-66
2022/05/14 01:14:54;;;;;;;9.75;3.10;;;;;;;11.20;74.91;101974.56;4860367;29;20041;-67
2022/05/14 01:17:20;;;;;;;9.80;2.80;;;;;;;11.19;75.39;101972.81;4860801;29;20091;-66
2022/05/14 01:19:46;;;;;;;9.20;2.83;;;;;;;11.28;74.99;101970.56;4860583;29;20040;-66
2022/05/14 01:22:33;;;;;;;12.27;2.95;;;;;;;11.23;75.00;101969.06;4858829;29;20044;-66
2022/05/14 01:28:09;;;;;;;8.23;3.08;;;;;;;11.20;75.59;101966.56;4856469;29;20124;-66
2022/05/14 01:30:43;;;;;;;6.93;2.70;;;;;;;11.14;76.10;101973.94;4861320;29;20712;-67
2022/05/14 01:33:09;;;;;;;11.68;3.00;;;;;;;11.32;75.39;101969.50;4860350;29;20148;-66
2022/05/14 01:35:41;;;;;;;7.95;3.30;;;;;;;11.26;75.67;101972.47;4860522;29;20044;-66
2022/05/14 01:38:08;;;;;;;7.38;3.10;;;;;;;11.21;76.25;101974.50;4859694;29;20040;-66
2022/05/14 01:40:33;;;;;;;10.90;3.63;;;;;;;11.18;76.15;101973.75;4844004;29;20044;-67
2022/05/14 01:42:59;;;;;;;12.02;3.47;;;;;;;11.10;76.47;101971.47;4844424;29;20080;-66
2022/05/14 01:45:25;;;;;;;13.57;3.67;;;;;;;11.10;76.84;101975.00;4859271;29;20048;-66
2022/05/14 01:47:52;;;;;;;7.40;3.30;;;;;;;11.07;76.99;101976.94;4860094;29;20200;-66
2022/05/14 01:50:18;;;;;;;5.70;3.45;;;;;;;11.08;76.80;101974.19;4845145;29;20877;-66
2022/05/14 01:52:43;;;;;;;6.00;3.58;;;;;;;11.19;76.30;101979.03;4844757;29;20192;-66
2022/05/14 01:55:09;;;;;;;9.93;3.95;;;;;;;11.15;76.73;101974.78;4859411;29;20830;-66
2022/05/14 01:57:35;;;;;;;9.73;3.90;;;;;;;11.11;76.41;101976.72;4858809;29;20059;-66
2022/05/14 02:00:04;;;;;;;14.15;3.75;;;;;;;11.13;76.22;101974.84;4860047;29;20045;-66
2022/05/14 02:02:41;;;;;;;11.52;4.13;;;;;;;11.13;76.67;101976.66;4877383;29;20151;-66
2022/05/14 02:05:10;;;;;;;11.45;4.25;;;;;;;11.07;76.61;101975.13;4858653;29;20529;-66
2022/05/14 02:07:35;;;;;;;10.82;4.15;;;;;;;11.11;76.46;101976.72;4844421;29;20036;-66
2022/05/14 02:10:02;;;;;;;12.13;4.13;;;;;;;11.06;76.16;101972.56;4859444;29;20040;-66
2022/05/14 02:12:28;;;;;;;12.85;4.40;;;;;;;11.06;76.16;101970.75;4860156;29;20766;-66
2022/05/14 02:14:53;;;;;;;13.80;3.97;;;;;;;11.03;76.74;101962.88;4860667;29;20108;-66
2022/05/14 02:17:19;;;;;;;8.98;3.00;;;;;;;10.96;76.31;101966.78;4877943;29;20112;-66
2022/05/14 02:19:44;;;;;;;10.13;3.67;;;;;;;10.86;76.62;101973.47;4877527;29;20044;-66
2022/05/14 02:22:10;;;;;;;9.55;3.33;;;;;;;10.94;76.26;101965.97;4877506;29;20446;-66
2022/05/14 02:24:36;;;;;;;10.63;3.40;;;;;;;10.82;76.69;101972.75;4877712;29;20775;-66
2022/05/14 02:27:03;;;;;;;16.48;4.07;;;;;;;10.78;76.71;101968.50;4841501;29;20151;-66
2022/05/14 02:29:50;;;;;;;7.00;3.22;;;;;;;10.83;76.34;101971.81;4859185;29;20136;-65
2022/05/14 02:32:14;;;;;;;13.35;3.40;;;;;;;10.77;76.67;101979.25;4858504;29;20045;-65
2022/05/14 02:34:40;;;;;;;6.43;3.15;;;;;;;10.77;76.79;101973.91;4842676;29;20705;-66
2022/05/14 02:37:06;;;;;;;9.32;3.58;;;;;;;10.71;76.79;101980.38;4840986;29;20053;-66
2022/05/14 02:39:31;;;;;;;7.63;3.10;;;;;;;10.70;76.58;101969.81;4841735;29;20779;-65
2022/05/14 02:41:57;;;;;;;4.38;3.00;;;;;;;10.69;76.80;101968.03;4858659;29;20423;-66
2022/05/14 02:44:22;;;;;;;9.95;3.55;;;;;;;10.68;76.61;101966.31;4858265;29;20049;-65
2022/05/14 02:46:48;;;;;;;7.68;3.72;;;;;;;10.63;77.28;101972.72;4859784;29;20757;-66
2022/05/14 02:49:14;;;;;;;8.52;3.60;;;;;;;10.63;76.85;101979.84;4841499;29;20052;-66
2022/05/14 02:51:39;;;;;;;8.88;3.63;;;;;;;10.55;77.48;101980.22;4857717;29;20045;-65
2022/05/14 02:54:05;;;;;;;13.18;4.05;;;;;;;10.58;77.53;101974.72;4840292;29;20033;-65
2022/05/14 02:56:30;;;;;;;7.03;3.33;;;;;;;10.48;77.60;101977.88;4858921;29;20049;-65
2022/05/14 02:59:08;;;;;;;10.80;3.72;;;;;;;10.48;77.64;101973.41;4857258;29;20077;-65
2022/05/14 03:01:47;;;;;;;9.18;3.20;;;;;;;10.44;77.85;101977.19;4855904;29;20995;-65
2022/05/14 03:04:15;;;;;;;6.68;3.55;;;;;;;10.42;78.01;101981.69;4837466;29;20152;-65
2022/05/14 03:06:40;;;;;;;6.72;4.20;;;;;;;10.36;78.07;101982.84;4839556;29;20089;-66
2022/05/14 03:09:06;;;;;;;8.43;3.58;;;;;;;10.28;78.58;101981.44;4837101;29;20045;-65
2022/05/14 03:11:32;;;;;;;13.77;4.88;;;;;;;10.35;78.09;101977.59;4869900;29;20467;-66
2022/05/14 03:13:57;;;;;;;5.93;3.42;;;;;;;10.32;78.49;101977.69;4877957;29;20705;-65
2022/05/14 03:16:23;;;;;;;7.00;3.22;;;;;;;10.27;78.77;101977.03;4860125;29;20041;-65
2022/05/14 03:18:48;;;;;;;11.45;4.20;;;;;;;10.27;78.92;101977.03;4879490;29;20217;-66
2022/05/14 03:21:14;;;;;;;8.25;3.85;;;;;;;10.20;79.25;101979.09;4860793;29;20173;-65
2022/05/14 03:23:40;;;;;;;6.47;3.33;;;;;;;10.17;79.25;101981.00;4861902;29;20047;-66
2022/05/14 03:26:05;;;;;;;12.13;4.10;;;;;;;10.19;79.23;101980.03;4878472;29;20426;-66
2022/05/14 03:28:30;;;;;;;6.05;3.60;;;;;;;10.18;79.33;101974.72;4878163;29;20044;-66
2022/05/14 03:30:57;;;;;;;5.97;2.97;;;;;;;10.13;79.19;101973.13;4879231;29;20040;-66
2022/05/14 03:33:23;;;;;;;7.13;3.75;;;;;;;10.17;78.87;101973.00;4861391;29;20077;-65
2022/05/14 03:35:49;;;;;;;9.45;3.47;;;;;;;10.21;79.12;101977.28;4863004;29;20079;-65
2022/05/14 03:38:15;;;;;;;9.18;4.20;;;;;;;10.25;78.82;101979.78;4860726;29;20144;-65
2022/05/14 03:40:40;;;;;;;12.15;3.60;;;;;;;10.13;79.02;101973.13;4863104;29;20032;-65
2022/05/14 03:43:05;;;;;;;11.45;3.90;;;;;;;10.18;78.91;101969.41;4862486;29;20717;-65
2022/05/14 03:45:31;;;;;;;8.98;3.78;;;;;;;10.15;78.85;101965.09;4863006;29;20052;-65
2022/05/14 03:47:57;;;;;;;9.07;4.03;;;;;;;10.19;78.98;101968.47;4879749;29;20056;-65
2022/05/14 03:50:23;;;;;;;6.78;3.88;;;;;;;10.23;78.85;101978.06;4862278;29;20040;-65
2022/05/14 03:52:49;;;;;;;5.75;3.55;;;;;;;10.18;78.88;101975.59;4862841;29;20931;-65
2022/05/14 03:55:14;;;;;;;11.27;4.70;;;;;;;10.15;79.22;101977.56;4878547;29;20048;-66
2022/05/14 03:57:40;;;;;;;11.32;4.53;;;;;;;10.20;78.89;101972.88;4862552;29;20040;-65
2022/05/14 04:00:07;;;;;;;9.45;4.03;;;;;;;10.19;78.29;101974.69;4862122;29;20466;-65
2022/05/14 04:02:39;;;;;;;9.10;4.32;;;;;;;10.21;78.58;101971.94;4880082;29;20537;-65
2022/05/14 04:05:05;;;;;;;10.75;4.15;;;;;;;10.26;78.16;101981.50;4893895;29;20048;-66
2022/05/14 04:07:30;;;;;;;11.65;4.28;;;;;;;10.32;78.25;101986.56;4862389;29;20047;-66
2022/05/14 04:09:56;;;;;;;16.38;4.47;;;;;;;10.42;77.57;101989.69;4879617;29;20541;-65
2022/05/14 04:12:22;;;;;;;12.50;4.30;;;;;;;10.26;78.12;101984.16;4861921;29;20076;-65
2022/05/14 04:14:47;;;;;;;9.55;4.00;;;;;;;10.37;78.03;101981.91;4862106;29;20045;-66
2022/05/14 04:17:13;;;;;;;18.15;5.35;;;;;;;10.43;77.99;101985.22;4861098;29;20032;-66
2022/05/14 04:19:39;;;;;;;8.13;3.90;;;;;;;10.40;78.26;101990.72;4862111;29;20047;-66
2022/05/14 04:22:05;;;;;;;6.07;3.88;;;;;;;10.45;77.84;101997.56;4859958;29;20966;-66
2022/05/14 04:24:32;;;;;;;7.60;3.88;;;;;;;10.62;77.26;101996.81;4846618;29;20041;-65
2022/05/14 04:26:58;;;;;;;10.55;5.10;;;;;;;10.61;77.09;101995.94;4861570;29;20043;-66
2022/05/14 04:29:24;;;;;;;6.28;3.85;;;;;;;10.58;77.09;102005.88;4861173;29;20083;-65
2022/05/14 04:31:50;;;;;;;15.35;4.90;;;;;;;10.59;77.39;102007.59;4879848;29;20041;-65
2022/05/14 04:34:18;;;;;;;12.35;5.68;;;;;;;10.57;77.32;102009.47;4861196;29;20245;-66
2022/05/14 04:36:43;;;;;;;8.98;4.65;;;;;;;10.76;77.00;102002.38;4879288;29;20525;-66
2022/05/14 04:39:10;;;;;;;9.77;4.22;;;;;;;10.73;77.48;102007.00;4860670;29;20036;-66
2022/05/14 04:41:36;;;;;;;12.75;4.65;;;;;;;10.92;76.67;102007.03;4861335;29;20645;-66
2022/05/14 04:44:03;;;;;;;8.93;4.65;;;;;;;11.22;75.70;102018.94;4878328;29;20041;-65
2022/05/14 04:46:28;;;;;;;8.98;4.93;;;;;;;11.71;73.64;102016.56;4861123;29;20795;-66
2022/05/14 04:48:55;;;;;;;12.27;4.70;;;;;;;12.33;71.32;102011.69;4861053;29;20100;-66
2022/05/14 04:51:21;;;;;;;11.00;4.45;;;;;;;12.49;70.24;102004.59;4861220;29;20064;-66
2022/05/14 04:53:47;;;;;;;7.65;4.45;;;;;;;13.22;68.13;102010.50;4862904;29;20032;-66
2022/05/14 04:56:13;;;;;;;12.18;4.55;;;;;;;13.82;65.96;102016.00;4862387;29;20041;-66
2022/05/14 04:58:38;;;;;;;8.63;4.35;;;;;;;13.77;65.84;102020.75;4862082;29;20854;-66
2022/05/14 05:01:04;;;;;;;9.48;4.65;;;;;;;14.43;65.27;102017.69;4861399;29;20738;-66
2022/05/14 05:03:30;;;;;;;15.40;4.43;;;;;;;14.08;65.06;102019.81;4861158;29;20041;-65
2022/05/14 05:06:00;;;;;;;8.07;4.28;;;;;;;13.92;65.28;102021.69;4861882;29;20040;-66
2022/05/14 05:08:29;;;;;;;12.35;4.75;;;;;;;14.93;62.26;102029.00;4861275;29;20088;-66
2022/05/14 05:10:55;;;;;;;9.85;4.50;;;;;;;15.31;61.63;102026.53;4873390;29;20045;-66
2022/05/14 05:13:24;;;;;;;10.27;4.55;;;;;;;15.09;61.72;102039.63;4878171;29;20374;-66
2022/05/14 05:15:49;;;;;;;10.55;3.95;;;;;;;15.58;61.29;102028.44;4878727;29;20127;-66
2022/05/14 05:18:16;;;;;;;7.45;4.28;;;;;;;15.15;61.65;102025.81;4877888;29;20037;-66
2022/05/14 05:20:44;;;;;;;7.13;4.03;;;;;;;14.52;63.10;102027.06;4878663;29;20763;-66
2022/05/14 05:23:12;;;;;;;9.43;4.72;;;;;;;14.50;63.71;102037.00;4860610;29;20586;-66
2022/05/14 05:25:38;;;;;;;9.40;4.55;;;;;;;14.81;63.24;102027.94;4878392;29;20143;-66
2022/05/14 05:28:04;;;;;;;17.38;4.20;;;;;;;14.70;63.41;102025.03;4876912;29;20853;-66
2022/05/14 05:30:29;;;;;;;9.02;4.45;;;;;;;14.84;62.90;102035.81;4877600;29;20079;-66
2022/05/14 05:32:54;;;;;;;8.60;4.53;;;;;;;15.03;62.60;102020.25;4841809;29;20052;-66
2022/05/14 05:35:21;;;;;;;11.13;4.07;;;;;;;15.41;60.85;102033.09;4876337;29;20115;-66
2022/05/14 05:37:47;;;;;;;9.38;4.53;;;;;;;15.70;60.79;102031.19;4860530;29;20051;-66
2022/05/14 05:40:14;;;;;;;12.10;5.03;;;;;;;15.63;61.27;102035.25;4871743;29;20037;-66
2022/05/14 05:42:40;;;;;;;8.80;5.03;;;;;;;15.32;61.81;102040.88;4869571;29;20068;-66
2022/05/14 05:45:07;;;;;;;18.05;5.75;;;;;;;15.03;63.42;102040.88;4873470;29;20124;-66
2022/05/14 05:47:32;;;;;;;9.73;4.53;;;;;;;15.12;62.40;102052.88;4878164;29;20911;-66
2022/05/14 05:49:58;;;;;;;8.70;5.07;;;;;;;14.87;63.40;102051.72;4862195;29;20059;-66
2022/05/14 05:52:24;;;;;;;14.00;6.13;;;;;;;14.83;64.02;102052.88;4878493;29;20889;-66
2022/05/14 05:57:39;;;;;;;9.13;5.35;;;;;;;16.16;60.27;102055.03;4878890;29;20045;-66
2022/05/14 06:00:15;;;;;;;11.82;5.25;;;;;;;16.03;59.75;102067.59;4875784;29;20063;-66
2022/05/14 06:02:40;;;;;;;16.80;5.65;;;;;;;16.04;60.63;102063.94;4875119;29;20071;-67
2022/05/14 06:05:06;;;;;;;9.95;4.80;;;;;;;15.87;60.63;102062.38;4855810;29;20096;-66
2022/05/14 06:07:33;;;;;;;12.07;5.57;;;;;;;15.78;61.26;102066.53;4859171;29;20044;-67
2022/05/14 06:10:00;;;;;;;12.95;5.15;;;;;;;16.05;60.47;102074.59;4861359;29;20037;-66
2022/05/14 06:12:26;;;;;;;9.88;6.10;;;;;;;17.02;59.98;102057.22;4876950;29;20117;-67
2022/05/14 06:14:51;;;;;;;13.80;6.47;;;;;;;16.49;59.90;102064.47;4867109;29;20057;-66
2022/05/14 06:17:17;;;;;;;10.60;5.80;;;;;;;17.37;57.32;102064.56;4857275;29;20093;-66
2022/05/14 06:19:43;;;;;;;11.98;5.63;;;;;;;17.20;59.42;102057.72;4858907;29;20045;-66
2022/05/14 06:22:08;;;;;;;12.63;5.90;;;;;;;16.69;59.59;102068.47;4872723;29;20483;-66
2022/05/14 06:24:36;;;;;;;11.45;6.28;;;;;;;17.78;56.89;102062.44;4877510;29;20040;-67
2022/05/14 06:27:02;;;;;;;16.02;6.35;;;;;;;18.27;56.00;102068.66;4876593;29;20036;-66
2022/05/14 06:29:28;;;;;;;13.27;5.88;;;;;;;18.11;55.62;102067.13;4877745;29;20041;-65
2022/05/14 06:31:54;;;;;;;9.65;5.30;;;;;;;18.33;55.11;102060.13;4876958;29;20033;-66
2022/05/14 06:34:20;;;;;;;16.35;6.95;;;;;;;18.15;56.07;102054.28;4875605;29;20370;-65
2022/05/14 06:36:45;;;;;;;12.80;6.63;;;;;;;18.55;54.55;102059.31;4860092;29;20928;-66
2022/05/14 06:39:10;;;;;;;12.60;6.68;;;;;;;18.53;55.46;102061.28;4859015;29;20047;-66
2022/05/14 06:41:36;;;;;;;11.98;5.88;;;;;;;18.46;55.94;102063.59;4875961;29;20053;-67
2022/05/14 06:44:01;;;;;;;12.73;7.15;;;;;;;18.17;56.43;102060.41;4859150;29;20060;-66
2022/05/14 06:46:27;;;;;;;11.77;5.88;;;;;;;18.22;55.53;102058.22;4875988;29;20051;-66
2022/05/14 06:48:53;;;;;;;10.75;5.97;;;;;;;18.60;54.96;102060.69;4876523;29;20040;-67
2022/05/14 06:51:25;;;;;;;13.95;6.07;;;;;;;18.54;56.03;102077.38;4877225;29;20451;-66
2022/05/14 06:53:53;;;;;;;14.00;6.13;;;;;;;18.83;55.55;102071.56;4877619;29;20429;-65
2022/05/14 06:56:20;;;;;;;13.52;5.78;;;;;;;19.08;53.39;102076.75;4875990;29;20041;-67
2022/05/14 06:58:48;;;;;;;12.07;6.45;;;;;;;18.83;54.50;102080.53;4874828;29;20104;-64
2022/05/14 07:01:16;;;;;;;12.85;6.07;;;;;;;18.49;55.90;102068.75;4875746;29;20064;-66
2022/05/14 07:06:38;;;;;;;17.48;6.93;;;;;;;19.18;54.12;102074.19;4888756;29;20052;-65
2022/05/14 07:09:09;;;;;;;14.27;6.70;;;;;;;18.89;54.81;102065.69;4860844;29;20040;-65
2022/05/14 07:11:35;;;;;;;18.23;6.27;;;;;;;18.44;56.34;102070.94;4890087;29;20052;-68
2022/05/14 07:14:02;;;;;;;17.05;6.60;;;;;;;19.03;55.82;102064.59;4875248;29;20053;-65
2022/05/14 07:16:28;;;;;;;15.77;6.68;;;;;;;18.89;55.58;102066.53;4887448;29;20122;-65
2022/05/14 07:18:54;;;;;;;13.25;7.05;;;;;;;20.46;53.26;102065.38;4869155;29;20032;-65
2022/05/14 07:21:19;;;;;;;14.13;6.90;;;;;;;20.13;52.66;102080.81;4854461;29;20040;-65
2022/05/14 07:23:45;;;;;;;11.98;6.45;;;;;;;20.46;51.98;102073.50;4857102;29;20116;-64
2022/05/14 07:26:10;;;;;;;16.77;7.28;;;;;;;18.74;55.15;102075.00;4873653;29;20048;-65
2022/05/14 07:28:37;;;;;;;15.20;7.00;;;;;;;19.97;55.49;102076.78;4859307;29;20032;-66
2022/05/14 07:31:03;;;;;;;18.63;7.32;;;;;;;20.20;50.58;102078.44;4867422;29;20094;-66
2022/05/14 07:33:30;;;;;;;15.07;6.95;;;;;;;20.18;52.66;102078.56;4874438;29;20076;-66
2022/05/14 07:36:01;;;;;;;18.35;6.18;;;;;;;20.46;50.63;102075.34;4858855;29;20041;-66
2022/05/14 07:38:29;;;;;;;13.18;6.80;;;;;;;20.68;50.00;102072.53;4877333;29;20045;-66
2022/05/14 07:40:54;;;;;;;11.60;6.13;;;;;;;20.17;52.31;102079.53;4885295;29;20040;-66
2022/05/14 07:43:26;;;;;;;13.98;7.00;;;;;;;20.40;53.83;102077.59;4873007;29;20044;-66
2022/05/14 07:45:55;;;;;;;14.73;6.72;;;;;;;20.79;50.96;102082.47;4869515;29;20044;-66
2022/05/14 07:48:27;;;;;;;13.63;6.10;;;;;;;20.67;51.08;102087.06;4870449;29;20032;-65
2022/05/14 07:50:52;;;;;;;13.82;7.82;;;;;;;20.10;51.88;102097.28;4871733;29;20928;-66
2022/05/14 07:53:18;;;;;;;16.00;7.32;;;;;;;19.87;52.77;102099.19;4873702;29;20056;-66
2022/05/14 07:55:44;;;;;;;13.77;7.00;;;;;;;20.53;51.09;102093.69;4876118;29;20032;-66
2022/05/14 07:58:10;;;;;;;12.77;5.95;;;;;;;20.58;50.57;102096.00;4874430;29;20099;-66
2022/05/14 08:00:36;;;;;;;16.77;6.53;;;;;;;20.64;51.62;102096.34;4860391;29;20796;-66
2022/05/14 08:03:03;;;;;;;16.27;7.10;;;;;;;20.69;51.80;102088.69;4877955;29;20045;-65
2022/05/14 08:05:28;;;;;;;11.13;6.45;;;;;;;21.13;50.15;102083.06;4877017;29;20052;-65
2022/05/14 08:07:53;;;;;;;13.90;7.20;;;;;;;21.09;51.56;102089.78;4880598;29;20096;-65
2022/05/14 08:10:19;;;;;;;13.93;6.38;;;;;;;21.51;48.00;102085.09;4880046;29;20043;-66
2022/05/14 08:12:51;;;;;;;18.65;6.93;;;;;;;21.62;49.78;102095.00;4875504;29;20067;-66
2022/05/14 08:15:18;;;;;;;13.68;6.50;;;;;;;22.08;48.95;102090.78;4868444;29;20094;-66
2022/05/14 08:17:45;;;;;;;16.77;6.60;;;;;;;21.15;48.39;102086.50;4856670;29;20044;-66
2022/05/14 08:20:12;;;;;;;10.70;5.47;;;;;;;21.80;51.44;102090.63;4879639;29;20152;-66
2022/05/14 08:25:23;;;;;;;12.75;6.10;;;;;;;21.29;51.49;102085.28;4870783;29;20040;-66
2022/05/14 08:27:48;;;;;;;16.55;6.13;;;;;;;22.26;47.06;102083.69;4869829;29;20120;-66
2022/05/14 08:30:15;;;;;;;13.40;6.03;;;;;;;22.55;45.86;102082.81;4869480;29;20160;-66
2022/05/14 08:32:41;;;;;;;12.20;5.75;;;;;;;20.91;48.13;102087.66;4857567;29;20841;-66
2022/05/14 08:35:07;;;;;;;15.95;6.53;;;;;;;21.78;48.27;102095.31;4881069;29;20044;-66
2022/05/14 08:37:33;;;;;;;11.82;5.78;;;;;;;22.55;44.61;102091.81;4867610;29;20438;-66
2022/05/14 08:39:58;;;;;;;11.10;6.15;;;;;;;22.73;45.58;102091.94;4874808;29;20036;-65
2022/05/14 08:42:24;;;;;;;11.45;5.25;;;;;;;22.27;44.63;102095.41;4876980;29;20041;-66
2022/05/14 08:44:50;;;;;;;12.32;5.82;;;;;;;21.03;47.48;102095.72;4883710;29;20040;-66
2022/05/14 08:47:28;;;;;;;9.95;5.63;;;;;;;22.18;44.27;102097.13;4887264;29;20032;-66
2022/05/14 08:49:55;;;;;;;17.77;6.45;;;;;;;21.66;45.87;102093.72;4883038;29;20060;-66
2022/05/14 08:52:26;;;;;;;9.20;5.15;;;;;;;21.71;44.04;102081.44;4887730;29;20413;-66
2022/05/14 08:55:04;;;;;;;12.00;5.07;;;;;;;22.06;45.05;102084.66;4878989;29;20147;-66
2022/05/14 08:57:29;;;;;;;11.75;5.97;;;;;;;22.05;46.18;102088.38;4869784;29;20045;-66
2022/05/14 08:59:57;;;;;;;22.40;7.78;;;;;;;20.63;47.39;102086.50;4860151;29;20044;-66
2022/05/14 09:02:27;;;;;;;17.90;5.90;;;;;;;21.62;46.41;102084.97;4882453;29;20092;-66
2022/05/14 09:04:59;;;;;;;13.60;5.50;;;;;;;21.43;47.07;102082.22;4874501;29;20036;-66
2022/05/14 09:07:25;;;;;;;;;;;;;;;22.08;47.77;102080.78;4876921;29;20064;-65
2022/05/14 09:09:53;;;;;;;15.73;6.00;;;;;;;22.25;48.17;102072.97;4875894;29;20497;-66
2022/05/14 09:12:23;;;;;;;29.40;7.03;;;;;;;22.07;48.46;102080.91;4880984;29;20973;-66
2022/05/14 09:14:55;;;;;;;9.82;5.07;;;;;;;22.37;46.44;102077.22;4872604;29;20049;-66
2022/05/14 09:17:22;;;;;;;12.02;5.18;;;;;;;21.88;45.96;102084.47;4873635;29;20044;-65
2022/05/14 09:19:52;;;;;;;16.90;5.40;;;;;;;22.45;46.45;102077.38;4851955;29;20041;-65
2022/05/14 09:22:32;;;;;;;14.00;5.40;;;;;;;22.39;46.84;102075.22;4875992;29;20265;-66
2022/05/14 09:25:06;;;;;;;17.48;5.43;;;;;;;22.56;43.76;102079.09;4872246;29;20104;-65
2022/05/14 09:27:45;;;;;;;9.40;5.53;;;;;;;22.60;43.64;102081.38;4876545;29;20055;-66
2022/05/14 09:30:24;;;;;;;12.45;5.22;;;;;;;22.06;46.75;102077.34;4876454;29;20053;-65
2022/05/14 09:32:50;;;;;;;11.75;5.32;;;;;;;22.23;46.80;102079.38;4883165;29;20074;-65
2022/05/14 09:35:20;;;;;;;15.18;4.18;;;;;;;22.41;42.75;102081.38;4855724;29;20033;-66
2022/05/14 09:37:46;;;;;;;11.88;4.57;;;;;;;21.83;46.70;102079.44;4851661;29;20048;-66
2022/05/14 09:40:22;;;;;;;17.70;5.43;;;;;;;21.52;46.09;102072.38;4877468;29;20055;-65
2022/05/14 09:42:51;;;;;;;13.48;6.47;;;;;;;22.15;46.93;102075.69;4866473;29;20122;-65
2022/05/14 09:45:25;;;;;;;12.88;5.68;;;;;;;21.98;49.73;102085.34;4879028;29;20148;-66
2022/05/14 09:47:51;;;;;;;16.52;7.13;;;;;;;22.47;46.44;102078.94;4890227;29;20071;-66
2022/05/14 09:50:28;;;;;;;16.88;6.50;;;;;;;22.94;46.59;102070.88;4868521;29;20053;-65
2022/05/14 09:53:02;;;;;;;13.93;4.95;;;;;;;22.96;44.80;102081.59;4857769;29;20062;-66
2022/05/14 09:55:49;;;;;;;13.35;4.65;;;;;;;23.63;43.59;102083.19;4870773;29;20055;-66
2022/05/14 09:58:39;;;;;;;9.88;4.88;;;;;;;22.43;43.12;102074.78;4878948;29;20044;-67
2022/05/14 10:01:09;;;;;;;11.25;4.05;;;;;;;23.41;43.13;102080.84;4880596;29;20044;-66
2022/05/14 10:03:54;;;;;;;11.43;4.38;;;;;;;21.70;42.75;102078.88;4887809;29;20138;-67
2022/05/14 10:06:37;;;;;;;14.25;5.55;;;;;;;21.83;45.04;102089.47;4875878;29;20052;-67
2022/05/14 10:09:13;;;;;;;16.55;5.18;;;;;;;21.78;45.81;102084.44;4859573;29;21048;-67
2022/05/14 10:11:44;;;;;;;12.70;4.20;;;;;;;22.57;43.90;102078.94;4882752;29;20159;-67
2022/05/14 10:14:32;;;;;;;14.02;4.28;;;;;;;23.02;44.63;102082.88;4890988;29;20667;-67
2022/05/14 10:17:28;;;;;;;16.83;4.88;;;;;;;22.84;46.43;102078.19;4879258;29;20048;-67
2022/05/14 10:20:06;;;;;;;12.52;5.07;;;;;;;22.14;45.26;102088.41;4872250;29;20076;-66
2022/05/14 10:29:26;;;;;;;9.10;4.05;;;;;;;23.32;43.03;102085.34;4812332;29;20144;-66
2022/05/14 10:32:08;;;;;;;8.85;3.80;;;;;;;22.82;41.21;102077.44;4819396;29;20066;-66
2022/05/14 10:34:44;;;;;;;5.60;3.17;;;;;;;22.62;41.43;102071.19;4799022;29;20920;-67
2022/05/14 10:37:31;;;;;;;11.45;4.68;;;;;;;22.73;41.17;102081.91;4803112;29;20471;-65
2022/05/14 10:40:29;;;;;;;21.10;5.50;;;;;;;23.09;44.73;102073.94;4800596;29;20046;-65
2022/05/14 10:42:59;;;;;;;10.68;4.50;;;;;;;23.58;46.12;102071.00;4809285;29;20068;-66
2022/05/14 10:45:32;;;;;;;10.45;4.03;;;;;;;23.65;42.71;102067.56;4815671;29;20042;-66
2022/05/14 10:48:23;;;;;;;14.57;5.53;;;;;;;23.66;41.16;102082.03;4802429;29;20050;-65
2022/05/14 10:50:48;;;;;;;11.52;4.68;;;;;;;23.03;40.76;102090.88;4806256;29;20055;-66
2022/05/14 10:53:16;;;;;;;11.85;4.70;;;;;;;23.93;40.98;102079.28;4814228;29;20057;-68
2022/05/14 10:55:51;;;;;;;10.20;4.18;;;;;;;23.58;42.04;102082.75;4817466;29;20062;-66
2022/05/14 10:58:35;;;;;;;15.13;4.38;;;;;;;23.95;39.53;102073.69;4801633;29;20147;-67
2022/05/14 11:01:05;;;;;;;12.32;4.55;;;;;;;23.65;41.24;102077.63;4797057;29;20049;-67
2022/05/14 11:03:36;;;;;;;9.88;4.95;;;;;;;23.87;41.01;102077.16;4871539;29;20757;-67
2022/05/14 11:06:01;;;;;;;7.07;3.20;;;;;;;22.81;41.77;102072.16;4875034;29;20711;-67
2022/05/14 11:08:35;;;;;;;6.50;3.70;;;;;;;23.75;41.25;102079.25;4859344;29;20047;-66
2022/05/14 11:11:02;;;;;;;13.48;5.13;;;;;;;23.43;40.24;102081.56;4892321;29;20040;-67
2022/05/14 11:13:28;;;;;;;9.95;4.10;;;;;;;23.68;40.69;102072.69;4882154;29;20047;-67
2022/05/14 11:16:06;;;;;;;13.98;4.75;;;;;;;23.95;41.43;102077.28;4870590;29;20047;-67
2022/05/14 11:18:53;;;;;;;13.55;4.47;;;;;;;24.03;40.67;102085.50;4860846;29;20048;-65
2022/05/14 11:21:31;;;;;;;10.75;4.15;;;;;;;24.41;38.62;102082.66;4883688;29;20037;-68
2022/05/14 11:24:00;;;;;;;12.73;4.55;;;;;;;24.32;40.15;102083.56;4870635;29;20040;-67
2022/05/14 11:26:27;;;;;;;10.60;4.20;;;;;;;24.35;40.44;102078.66;4875776;29;20837;-67
2022/05/14 11:28:59;;;;;;;9.98;4.18;;;;;;;23.37;41.17;102077.56;4880526;29;20119;-66
2022/05/14 11:31:29;;;;;;;7.38;3.20;;;;;;;24.58;38.26;102062.69;4883947;29;20028;-67
2022/05/14 11:33:58;;;;;;;9.68;3.95;;;;;;;24.48;41.79;102072.81;4891660;29;20142;-66
2022/05/14 11:36:30;;;;;;;7.60;3.88;;;;;;;24.29;39.50;102076.53;4879087;29;20072;-67
2022/05/14 11:39:22;;;;;;;14.02;4.72;;;;;;;23.96;38.98;102070.78;4897384;29;20036;-67
2022/05/14 11:41:50;;;;;;;16.50;5.70;;;;;;;22.90;42.52;102071.31;4885323;29;20045;-65
2022/05/14 11:44:31;;;;;;;8.80;4.32;;;;;;;23.46;38.85;102078.53;4893182;29;20086;-66